メインページ
METAR-TAF:

METAR-TAF

空港 :

Lloydminster, アルバータ州, カナダ

緯度: 53-19N, 経度: 110-04W, 海抜: 665m

現時点の気象観測

当レポートは39分前の06:00(UTC)に作成
北西の風 15kt、最大21ktの突風を伴う
気温 -10°C
湿度 79%
気圧 1004 hPa
視程: 14.5km
高度1700ftの千切れ雲あり
高度2700ftの曇り
小雪

METAR: CYLL 150600Z AUTO 32015G21KT 9SM -SN BKN017 OVC027 M10/M13 A2965 RMK SLP099

時間: 23:39 (06:39 UTC)

予報

当レポートは1時間1分前の05:38(UTC)に作成
予報は15日の 06時(UTC)から 15日の 18時(UTC)まで有効
北西の風 12kt
視程: 10km
高度2500ftの曇り
15日の 06時(UTC)から 15日の 18時(UTC)まで一時的に
視程: 8.0km
高度1500ftの曇り
小雪
15日の 12時(UTC)から 15日の 14時(UTC)まで徐々に
西の風 8kt

TAF: CYLL 150538Z 1506/1518 31012KT P6SM OVC025 TEMPO 1506/1518 5SM -SN OVC015 BECMG 1512/1514 28008KT RMK FCST BASED ON AUTO OBS. NXT FCST BY 151200Z

4,000以上の空港の気象観測と天気予報(METAR報とTAF報)

利用可能な観測所は地図上に黄色い丸と赤い丸で示す。

丸の上にカーソルを重ねると観測所名を参照できる。

次にクリックすると気象観測と天気予報を参照できる。

マップの切り替え:黒色「×」印の緑ボタンをクリックして拡大、「-」印の緑ボタンをクリックして縮小、緑色の三角印をクリックして隣りの地図に切り替え


METAR-TAF: